createdAt,value
2023-01-12T00:02:44.959Z,93.55
2023-01-12T00:05:46.545Z,93.57
2023-01-12T00:08:49.633Z,93.20
2023-01-12T00:11:51.478Z,93.43
2023-01-12T00:14:53.233Z,94.02
2023-01-12T00:17:54.816Z,94.42
2023-01-12T00:20:56.441Z,94.22
2023-01-12T00:23:57.966Z,93.81
2023-01-12T00:27:01.834Z,93.64
2023-01-12T00:30:03.563Z,94.13
2023-01-12T00:33:05.177Z,93.98
2023-01-12T00:36:11.437Z,94.14
2023-01-12T00:39:14.213Z,94.44
2023-01-12T00:42:34.523Z,94.80
2023-01-12T00:45:36.022Z,93.49
2023-01-12T00:48:37.560Z,92.08
2023-01-12T00:51:39.262Z,92.70
2023-01-12T00:54:40.881Z,93.09
2023-01-12T00:57:42.501Z,92.78
2023-01-12T01:00:44.090Z,92.62
2023-01-12T01:03:45.707Z,93.37
2023-01-12T01:06:47.533Z,93.06
2023-01-12T01:09:49.637Z,93.13
2023-01-12T01:12:51.927Z,93.13
2023-01-12T01:15:53.596Z,93.84
2023-01-12T01:18:56.067Z,94.13
2023-01-12T01:21:57.775Z,93.76
2023-01-12T01:24:59.386Z,93.96
2023-01-12T01:28:01.003Z,93.66
2023-01-12T01:31:08.260Z,93.87
2023-01-12T01:34:09.917Z,92.92
2023-01-12T01:37:12.184Z,92.65
2023-01-12T01:40:13.884Z,92.60
2023-01-12T01:43:17.164Z,91.89
2023-01-12T01:46:26.712Z,92.49
2023-01-12T01:49:41.731Z,92.19
2023-01-12T01:52:46.809Z,92.07
2023-01-12T01:55:59.914Z,92.62
2023-01-12T01:59:15.960Z,93.18
2023-01-12T02:02:18.412Z,92.67
2023-01-12T02:05:25.258Z,90.92
2023-01-12T02:08:32.175Z,91.77
2023-01-12T02:11:52.185Z,92.31
2023-01-12T02:15:13.589Z,92.34
2023-01-12T02:18:33.018Z,92.21
2023-01-12T02:21:52.028Z,91.58
2023-01-12T02:24:59.443Z,90.40
2023-01-12T02:28:16.976Z,90.32
2023-01-12T02:31:30.610Z,89.97
2023-01-12T02:34:57.987Z,90.18
2023-01-12T02:38:14.408Z,89.67
2023-01-12T02:41:54.851Z,88.66
2023-01-12T02:45:09.915Z,88.64
2023-01-12T02:48:23.942Z,89.13
2023-01-12T02:51:33.475Z,88.83
2023-01-12T02:54:36.952Z,88.60
2023-01-12T02:57:38.896Z,87.24
2023-01-12T03:00:44.358Z,86.77
2023-01-12T03:03:48.501Z,87.51
2023-01-12T03:06:56.166Z,86.54
2023-01-12T03:10:16.864Z,85.38
2023-01-12T03:13:20.328Z,85.39
2023-01-12T03:16:26.070Z,85.90
2023-01-12T03:19:32.666Z,87.05
2023-01-12T03:22:36.731Z,88.35
2023-01-12T03:25:40.408Z,87.35
2023-01-12T03:28:46.092Z,87.30
2023-01-12T03:31:47.843Z,86.95
2023-01-12T03:34:49.840Z,87.26
2023-01-12T03:37:59.265Z,87.27
2023-01-12T03:41:09.776Z,87.71
2023-01-12T03:44:20.600Z,86.96
2023-01-12T03:47:27.392Z,84.51
2023-01-12T03:50:35.334Z,83.65
2023-01-12T03:53:39.307Z,83.36
2023-01-12T03:56:44.747Z,83.80
2023-01-12T03:59:46.333Z,83.91
2023-01-12T04:02:47.870Z,83.81
2023-01-12T04:05:49.465Z,84.26
2023-01-12T04:08:51.075Z,83.41
2023-01-12T04:12:10.850Z,82.62
2023-01-12T04:15:14.101Z,82.17
2023-01-12T04:18:15.920Z,81.35
2023-01-12T04:21:35.931Z,80.91
2023-01-12T04:24:37.459Z,80.75
2023-01-12T04:27:56.880Z,80.32
2023-01-12T04:30:58.463Z,80.40
2023-01-12T04:34:00.066Z,80.34
2023-01-12T04:37:03.024Z,80.93
2023-01-12T04:40:05.786Z,80.52
2023-01-12T04:43:09.926Z,80.76
2023-01-12T04:46:11.487Z,80.88
2023-01-12T04:49:13.123Z,80.76
2023-01-12T04:52:14.707Z,81.17
2023-01-12T04:55:16.283Z,81.42
2023-01-12T04:58:18.003Z,81.75
2023-01-12T05:01:19.959Z,82.18
2023-01-12T05:04:21.579Z,82.88
2023-01-12T05:07:23.301Z,83.57
2023-01-12T05:10:24.923Z,84.58
2023-01-12T05:13:29.449Z,84.77
2023-01-12T05:16:31.232Z,85.61
2023-01-12T05:19:32.874Z,85.01
2023-01-12T05:22:34.701Z,84.91
2023-01-12T05:25:36.377Z,85.09
2023-01-12T05:28:38.004Z,82.76
2023-01-12T05:31:40.217Z,83.12
2023-01-12T05:34:41.823Z,83.17
2023-01-12T05:37:43.357Z,83.36
2023-01-12T05:40:44.957Z,82.50
2023-01-12T05:43:52.582Z,81.58
2023-01-12T05:46:54.581Z,81.75
2023-01-12T05:49:56.799Z,81.21
2023-01-12T05:53:01.319Z,81.24
2023-01-12T05:56:17.946Z,79.52
2023-01-12T05:59:19.570Z,78.69
2023-01-12T06:02:21.681Z,79.50
2023-01-12T06:05:23.463Z,79.65
2023-01-12T06:08:25.556Z,80.01
2023-01-12T06:11:45.855Z,79.69
2023-01-12T06:14:53.914Z,79.55
2023-01-12T06:17:56.837Z,80.02
2023-01-12T06:20:59.859Z,79.37
2023-01-12T06:24:13.732Z,79.64
2023-01-12T06:27:16.512Z,79.32
2023-01-12T06:30:18.357Z,78.94
2023-01-12T06:33:19.900Z,79.48
2023-01-12T06:36:21.427Z,79.86
2023-01-12T06:39:23.048Z,80.03
2023-01-12T06:42:31.495Z,80.41
2023-01-12T06:45:33.352Z,80.34
2023-01-12T06:48:39.019Z,79.83
2023-01-12T06:51:41.137Z,79.70
2023-01-12T06:54:42.724Z,80.43
2023-01-12T06:57:44.433Z,80.30
2023-01-12T07:00:46.207Z,80.03
2023-01-12T07:03:47.806Z,79.99
2023-01-12T07:06:49.719Z,80.05
2023-01-12T07:09:54.288Z,79.77
2023-01-12T07:12:55.842Z,79.82
2023-01-12T07:16:00.987Z,80.36
2023-01-12T07:19:02.830Z,78.56
2023-01-12T07:22:13.450Z,78.82
2023-01-12T07:25:29.004Z,77.49
2023-01-12T07:28:31.579Z,76.68
2023-01-12T07:31:33.490Z,77.08
2023-01-12T07:34:35.155Z,77.98
2023-01-12T07:37:36.756Z,77.48
2023-01-12T07:40:38.440Z,77.28
2023-01-12T07:43:40.094Z,77.52
2023-01-12T07:46:41.749Z,76.94
2023-01-12T07:49:43.945Z,76.20
2023-01-12T07:52:45.561Z,76.46
2023-01-12T07:55:48.721Z,76.24
2023-01-12T07:58:50.492Z,75.49
2023-01-12T08:01:53.950Z,75.50
2023-01-12T08:04:55.609Z,74.66
2023-01-12T08:07:57.210Z,74.52
2023-01-12T08:11:16.959Z,74.42
2023-01-12T08:14:33.217Z,74.27
2023-01-12T08:17:41.156Z,73.88
2023-01-12T08:20:44.120Z,73.85
2023-01-12T08:23:53.586Z,72.90
2023-01-12T08:26:58.285Z,71.93
2023-01-12T08:30:02.754Z,71.02
2023-01-12T08:33:04.316Z,70.79
2023-01-12T08:36:09.090Z,70.31
2023-01-12T08:39:11.009Z,70.32
2023-01-12T08:42:12.976Z,69.74
2023-01-12T08:45:14.685Z,69.94
2023-01-12T08:48:17.840Z,70.01
2023-01-12T08:51:19.985Z,70.19
2023-01-12T08:54:22.562Z,69.72
2023-01-12T08:57:24.111Z,69.97
2023-01-12T09:00:25.677Z,70.56
2023-01-12T09:03:27.233Z,71.51
2023-01-12T09:06:40.935Z,71.73
2023-01-12T09:09:42.522Z,72.23
2023-01-12T09:12:44.737Z,72.17
2023-01-12T09:16:01.133Z,72.00
2023-01-12T09:19:08.928Z,72.12
2023-01-12T09:22:10.521Z,71.59
2023-01-12T09:25:12.348Z,71.51
2023-01-12T09:28:13.910Z,71.18
2023-01-12T09:31:18.990Z,71.86
2023-01-12T09:34:20.750Z,72.09
2023-01-12T09:37:22.252Z,71.86
2023-01-12T09:40:24.264Z,72.00
2023-01-12T09:43:45.067Z,72.37
2023-01-12T09:46:58.681Z,72.38
2023-01-12T09:50:11.711Z,72.98
2023-01-12T09:53:18.844Z,73.59
2023-01-12T09:56:59.682Z,73.79
2023-01-12T10:00:20.478Z,73.78
2023-01-12T10:03:39.097Z,74.07
2023-01-12T10:06:41.472Z,73.76
2023-01-12T10:09:43.941Z,74.03
2023-01-12T10:12:54.651Z,73.31
2023-01-12T10:16:06.781Z,73.12
2023-01-12T10:19:37.877Z,73.29
2023-01-12T10:22:42.311Z,72.92
2023-01-12T10:25:48.633Z,72.19
2023-01-12T10:28:54.933Z,71.94
2023-01-12T10:32:00.093Z,72.38
2023-01-12T10:35:01.737Z,71.62
2023-01-12T10:38:20.241Z,72.46
2023-01-12T10:41:26.488Z,72.74
2023-01-12T10:44:28.582Z,73.04
2023-01-12T10:47:33.486Z,73.90
2023-01-12T10:50:38.781Z,73.34
2023-01-12T10:53:49.917Z,74.29
2023-01-12T10:57:19.466Z,74.58
2023-01-12T11:00:34.538Z,75.12
2023-01-12T11:03:39.322Z,74.96
2023-01-12T11:06:46.922Z,75.36
2023-01-12T11:09:49.070Z,76.23
2023-01-12T11:12:59.104Z,74.23
2023-01-12T11:16:25.088Z,73.43
2023-01-12T11:19:32.860Z,73.59
2023-01-12T11:22:37.289Z,75.24
2023-01-12T11:25:45.030Z,75.79
2023-01-12T11:28:52.313Z,76.18
2023-01-12T11:31:58.998Z,76.38
2023-01-12T11:35:08.463Z,75.99
2023-01-12T11:38:14.206Z,76.88
2023-01-12T11:41:23.136Z,76.62
2023-01-12T11:44:31.058Z,75.77
2023-01-12T11:47:39.328Z,75.91
2023-01-12T11:50:43.055Z,75.33
2023-01-12T11:53:45.309Z,75.95
2023-01-12T11:57:09.763Z,76.23
2023-01-12T12:00:31.678Z,76.49
2023-01-12T12:04:05.714Z,76.02
2023-01-12T12:07:25.218Z,75.97
2023-01-12T12:10:47.824Z,75.90
2023-01-12T12:14:29.571Z,76.93
2023-01-12T12:17:48.964Z,75.61
2023-01-12T12:21:09.502Z,77.01
2023-01-12T12:24:32.354Z,76.50
2023-01-12T12:27:42.592Z,76.30
2023-01-12T12:31:11.603Z,76.52
2023-01-12T12:34:31.734Z,75.96
2023-01-12T12:37:52.257Z,76.37
2023-01-12T12:41:21.596Z,75.96
2023-01-12T12:44:52.887Z,76.20
2023-01-12T12:48:00.898Z,76.73
2023-01-12T12:51:09.055Z,76.29
2023-01-12T12:54:17.452Z,76.73
2023-01-12T12:57:19.153Z,76.81
2023-01-12T13:00:40.155Z,75.85
2023-01-12T13:03:41.772Z,75.66
2023-01-12T13:06:49.441Z,75.59
2023-01-12T13:09:51.312Z,74.25
2023-01-12T13:12:58.132Z,72.93
2023-01-12T13:16:11.663Z,71.91
2023-01-12T13:19:15.829Z,71.06
2023-01-12T13:22:17.333Z,70.64
2023-01-12T13:25:29.555Z,71.21
2023-01-12T13:28:31.097Z,70.55
2023-01-12T13:31:33.123Z,70.68
2023-01-12T13:34:37.555Z,71.71
2023-01-12T13:37:48.200Z,71.38
2023-01-12T13:40:55.593Z,71.81
2023-01-12T13:43:58.136Z,72.43
2023-01-12T13:47:09.228Z,72.89
2023-01-12T13:50:17.320Z,72.92
2023-01-12T13:53:27.637Z,73.05
2023-01-12T13:56:31.313Z,73.63
2023-01-12T13:59:34.919Z,74.08
2023-01-12T14:02:38.789Z,73.82
2023-01-12T14:05:55.271Z,73.86
2023-01-12T14:09:23.647Z,73.88
2023-01-12T14:12:47.472Z,74.12
2023-01-12T14:16:07.771Z,74.35
2023-01-12T14:19:40.620Z,74.50
2023-01-12T14:22:42.894Z,74.68
2023-01-12T14:25:46.300Z,74.46
2023-01-12T14:28:53.118Z,74.63
2023-01-12T14:31:55.299Z,74.60
2023-01-12T14:34:57.976Z,74.73
2023-01-12T14:38:01.468Z,75.23
2023-01-12T14:41:32.770Z,74.96
2023-01-12T14:48:22.365Z,75.18
2023-01-12T14:51:34.185Z,75.42
2023-01-12T14:54:35.881Z,75.78
2023-01-12T14:57:37.737Z,75.00
2023-01-12T15:00:43.458Z,75.13
2023-01-12T15:03:48.493Z,75.39
2023-01-12T15:07:05.595Z,74.71
2023-01-12T15:10:10.261Z,74.26
2023-01-12T15:13:19.053Z,73.99
2023-01-12T15:16:38.877Z,74.46
2023-01-12T15:19:59.134Z,74.18
2023-01-12T15:23:22.408Z,74.52
2023-01-12T15:26:24.066Z,74.61
2023-01-12T15:29:29.078Z,74.23
2023-01-12T15:32:51.114Z,74.44
2023-01-12T15:35:53.219Z,73.85
2023-01-12T15:38:55.237Z,74.65
2023-01-12T15:42:15.451Z,74.45
2023-01-12T15:45:34.673Z,74.88
2023-01-12T15:48:36.277Z,74.47
2023-01-12T15:51:37.946Z,74.02
2023-01-12T15:54:39.608Z,74.13
2023-01-12T15:57:41.300Z,74.15
2023-01-12T16:00:46.108Z,73.86
2023-01-12T16:04:15.140Z,74.15
2023-01-12T16:07:09.267Z,74.49
2023-01-12T16:10:12.552Z,74.39
2023-01-12T16:13:14.276Z,73.56
2023-01-12T16:16:17.660Z,73.30
2023-01-12T16:19:21.628Z,73.32
2023-01-12T16:22:26.645Z,73.02
2023-01-12T16:25:28.427Z,73.54
2023-01-12T16:28:31.087Z,74.32
2023-01-12T16:31:32.710Z,74.45
2023-01-12T16:34:34.768Z,73.83
2023-01-12T16:37:36.675Z,73.20
2023-01-12T16:40:40.497Z,73.44
2023-01-12T16:43:42.128Z,73.55
2023-01-12T16:46:43.846Z,73.60
2023-01-12T16:49:49.474Z,73.05
2023-01-12T16:52:50.973Z,73.34
2023-01-12T16:55:53.261Z,72.69
2023-01-12T16:58:55.119Z,72.76
2023-01-12T17:01:56.830Z,72.52
2023-01-12T17:04:58.783Z,72.47
2023-01-12T17:08:00.861Z,72.86
2023-01-12T17:11:14.345Z,73.07
2023-01-12T17:14:25.008Z,72.38
2023-01-12T17:17:26.644Z,72.44
2023-01-12T17:20:28.770Z,72.06
2023-01-12T17:23:30.426Z,71.89
2023-01-12T17:26:31.883Z,71.56
2023-01-12T17:29:33.776Z,71.98
2023-01-12T17:32:35.795Z,71.60
2023-01-12T17:35:37.362Z,71.87
2023-01-12T17:38:40.123Z,72.33
2023-01-12T17:42:00.884Z,71.10
2023-01-12T17:45:03.534Z,70.05
2023-01-12T17:48:05.899Z,70.71
2023-01-12T17:51:11.821Z,71.04
2023-01-12T17:54:15.262Z,71.21
2023-01-12T17:57:16.836Z,71.43
2023-01-12T18:00:19.006Z,71.12
2023-01-12T18:03:20.560Z,70.97
2023-01-12T18:06:26.783Z,70.61
2023-01-12T18:09:28.641Z,69.69
2023-01-12T18:12:30.628Z,69.54
2023-01-12T18:15:32.297Z,70.08
2023-01-12T18:18:33.969Z,70.33
2023-01-12T18:21:35.763Z,69.85
2023-01-12T18:24:37.515Z,69.55
2023-01-12T18:27:39.271Z,69.66
2023-01-12T18:30:40.887Z,69.49
2023-01-12T18:33:43.130Z,69.27
2023-01-12T18:36:45.807Z,69.32
2023-01-12T18:39:49.119Z,69.96
2023-01-12T18:42:50.753Z,70.08
2023-01-12T18:45:52.290Z,69.63
2023-01-12T18:48:53.893Z,69.38
2023-01-12T18:52:15.016Z,69.20
2023-01-12T18:55:16.714Z,69.17
2023-01-12T18:58:18.294Z,69.64
2023-01-12T19:01:24.335Z,69.38
2023-01-12T19:04:41.165Z,69.40
2023-01-12T19:07:57.889Z,69.54
2023-01-12T19:11:13.492Z,69.92
2023-01-12T19:14:38.064Z,69.96
2023-01-12T19:17:41.904Z,69.73
2023-01-12T19:20:43.611Z,69.67
2023-01-12T19:24:03.402Z,69.63
2023-01-12T19:27:23.751Z,69.08
2023-01-12T19:30:27.744Z,68.80
2023-01-12T19:33:29.591Z,68.20
2023-01-12T19:36:31.207Z,68.73
2023-01-12T19:40:04.970Z,68.22
2023-01-12T19:43:19.388Z,67.56
2023-01-12T19:46:20.978Z,68.17
2023-01-12T19:49:22.487Z,67.45
2023-01-12T19:52:24.186Z,67.65
2023-01-12T19:55:26.762Z,68.19
2023-01-12T19:58:28.743Z,67.39
2023-01-12T20:01:33.058Z,67.50
2023-01-12T20:04:34.657Z,67.85
2023-01-12T20:07:37.085Z,68.32
2023-01-12T20:10:38.661Z,67.34
2023-01-12T20:13:40.187Z,67.75
2023-01-12T20:16:41.717Z,67.86
2023-01-12T20:19:43.311Z,67.21
2023-01-12T20:22:44.852Z,67.59
2023-01-12T20:25:46.414Z,67.23
2023-01-12T20:28:47.949Z,67.93
2023-01-12T20:31:54.259Z,67.41
2023-01-12T20:34:56.010Z,67.39
2023-01-12T20:37:57.818Z,67.01
2023-01-12T20:41:00.620Z,67.10
2023-01-12T20:44:02.270Z,67.38
2023-01-12T20:47:03.934Z,67.89
2023-01-12T20:50:13.669Z,67.38
2023-01-12T20:53:16.251Z,67.53
2023-01-12T20:56:18.771Z,67.55
2023-01-12T20:59:20.310Z,67.46
2023-01-12T21:02:24.888Z,66.82
2023-01-12T21:05:26.534Z,67.47
2023-01-12T21:08:28.051Z,67.21
2023-01-12T21:11:29.541Z,67.07
2023-01-12T21:14:31.525Z,66.39
2023-01-12T21:17:35.481Z,66.91
2023-01-12T21:20:41.793Z,66.98
2023-01-12T21:23:43.998Z,66.54
2023-01-12T21:26:45.561Z,65.79
2023-01-12T21:29:47.792Z,66.93
2023-01-12T21:32:49.343Z,65.98
2023-01-12T21:35:57.604Z,66.49
2023-01-12T21:38:59.354Z,66.14
2023-01-12T21:42:19.627Z,66.79
2023-01-12T21:45:23.657Z,66.65
2023-01-12T21:48:25.871Z,66.62
2023-01-12T21:51:27.678Z,66.53
2023-01-12T21:54:29.354Z,66.59
2023-01-12T21:57:31.232Z,66.42
2023-01-12T22:00:32.946Z,66.27
2023-01-12T22:03:35.849Z,66.66
2023-01-12T22:06:37.476Z,67.07
2023-01-12T22:09:39.458Z,67.01
2023-01-12T22:12:41.065Z,66.90
2023-01-12T22:15:43.381Z,66.93
2023-01-12T22:18:50.401Z,67.38
2023-01-12T22:21:52.000Z,67.34
2023-01-12T22:24:53.521Z,67.46
2023-01-12T22:28:01.697Z,67.64
2023-01-12T22:31:15.671Z,67.42
2023-01-12T22:34:17.285Z,67.76
2023-01-12T22:37:19.204Z,67.50
2023-01-12T22:40:21.306Z,67.11
2023-01-12T22:43:28.932Z,67.04
2023-01-12T22:46:30.512Z,67.57
2023-01-12T22:49:35.470Z,67.18
2023-01-12T22:52:39.622Z,67.65
2023-01-12T22:55:41.155Z,67.86
2023-01-12T22:58:47.806Z,66.94
2023-01-12T23:01:49.403Z,67.46
2023-01-12T23:04:51.021Z,67.49
2023-01-12T23:07:52.508Z,67.25
2023-01-12T23:11:07.282Z,66.76
2023-01-12T23:14:08.834Z,67.03
2023-01-12T23:17:12.768Z,67.22
2023-01-12T23:20:14.611Z,67.68
2023-01-12T23:23:20.351Z,67.52
2023-01-12T23:26:24.697Z,67.70
2023-01-12T23:29:26.209Z,67.70
2023-01-12T23:32:27.708Z,67.54
2023-01-12T23:35:30.452Z,67.99
2023-01-12T23:38:32.441Z,67.73
2023-01-12T23:41:37.674Z,67.76
2023-01-12T23:44:40.709Z,68.51
2023-01-12T23:47:42.745Z,69.03
2023-01-12T23:50:44.307Z,68.20
2023-01-12T23:53:46.245Z,68.21
2023-01-12T23:56:50.845Z,68.37
2023-01-12T23:59:52.434Z,68.51
